GAF359 EDDN-EDDK
Flight info
| Callsign | GAF359 |
|---|---|
| Flight time | 0h 37m |
| Altitude | 23000 |
| Route | ERETO1G ERETO DCT LONLI/N0457F240 L984 ASKIK T840 GULKO GULKO1C |
| Aircraft | A359/H-SDE2E3GHIJ3J4J5LM1ORWXY/LB1D1 |
Departure
| Time | 2026-04-25 13:28 |
|---|---|
| Airport | Nuremberg Airport (EDDN) |
Arrival
| Time | 2026-04-25 14:05 |
|---|---|
| Airport | Cologne Bonn Airport (EDDK) |
| Time | Latitude | Longitude | Altitude | Speed | Heading |
|---|---|---|---|---|---|
| 2026-04-25 13:16 | 49.49548 | 11.07456 | 1034 ft | 0 kts | 188° |
| 2026-04-25 13:20 | 49.49561 | 11.07459 | 1032 ft | 3 kts | 187° |
| 2026-04-25 13:20 | 49.49581 | 11.07462 | 1034 ft | 3 kts | 183° |
| 2026-04-25 13:20 | 49.49601 | 11.07462 | 1034 ft | 3 kts | 179° |
| 2026-04-25 13:21 | 49.49615 | 11.07462 | 1034 ft | 3 kts | 176° |
| 2026-04-25 13:21 | 49.49625 | 11.07461 | 1034 ft | 0 kts | 173° |
| 2026-04-25 13:23 | 49.49622 | 11.07464 | 1034 ft | 2 kts | 157° |
| 2026-04-25 13:23 | 49.49619 | 11.07480 | 1032 ft | 0 kts | 109° |
| 2026-04-25 13:24 | 49.49617 | 11.07490 | 1034 ft | 6 kts | 108° |
| 2026-04-25 13:24 | 49.49597 | 11.07656 | 1036 ft | 23 kts | 98° |
| 2026-04-25 13:25 | 49.49572 | 11.07911 | 1036 ft | 25 kts | 98° |
| 2026-04-25 13:25 | 49.49544 | 11.08190 | 1036 ft | 27 kts | 98° |
| 2026-04-25 13:25 | 49.49535 | 11.08286 | 1038 ft | 3 kts | 98° |
| 2026-04-25 13:25 | 49.49566 | 11.08356 | 1038 ft | 10 kts | 23° |
| 2026-04-25 13:26 | 49.49609 | 11.08405 | 1037 ft | 6 kts | 74° |
| 2026-04-25 13:26 | 49.49605 | 11.08545 | 1039 ft | 20 kts | 98° |
| 2026-04-25 13:26 | 49.49579 | 11.08825 | 1042 ft | 32 kts | 99° |
| 2026-04-25 13:26 | 49.49545 | 11.09173 | 1045 ft | 33 kts | 101° |
| 2026-04-25 13:27 | 49.49555 | 11.09419 | 1048 ft | 21 kts | 52° |
| 2026-04-25 13:27 | 49.49671 | 11.09542 | 1051 ft | 20 kts | 341° |
| 2026-04-25 13:27 | 49.49714 | 11.09390 | 1048 ft | 0 kts | 279° |
| 2026-04-25 13:28 | 49.49726 | 11.09278 | 1048 ft | 41 kts | 279° |
| 2026-04-25 13:28 | 49.49773 | 11.08804 | 1039 ft | 92 kts | 278° |
| 2026-04-25 13:28 | 49.49956 | 11.07001 | 1139 ft | 153 kts | 280° |
| 2026-04-25 13:28 | 49.50100 | 11.05429 | 1867 ft | 146 kts | 280° |
| 2026-04-25 13:29 | 49.50252 | 11.03871 | 2539 ft | 148 kts | 282° |
| 2026-04-25 13:29 | 49.50410 | 11.02270 | 3032 ft | 159 kts | 282° |
| 2026-04-25 13:29 | 49.50593 | 11.00469 | 3293 ft | 182 kts | 280° |
| 2026-04-25 13:30 | 49.51033 | 10.96092 | 3724 ft | 232 kts | 283° |
| 2026-04-25 13:30 | 49.51748 | 10.93782 | 4097 ft | 249 kts | 313° |
| 2026-04-25 13:30 | 49.53258 | 10.92505 | 4841 ft | 253 kts | 348° |
| 2026-04-25 13:31 | 49.56842 | 10.92478 | 6272 ft | 264 kts | 360° |
| 2026-04-25 13:31 | 49.58708 | 10.92569 | 7063 ft | 270 kts | 359° |
| 2026-04-25 13:31 | 49.60592 | 10.92641 | 8068 ft | 272 kts | 358° |
| 2026-04-25 13:31 | 49.62494 | 10.92514 | 9070 ft | 274 kts | 348° |
| 2026-04-25 13:32 | 49.64298 | 10.91600 | 10051 ft | 275 kts | 329° |
| 2026-04-25 13:32 | 49.65926 | 10.89922 | 10831 ft | 293 kts | 320° |
| 2026-04-25 13:32 | 49.67538 | 10.87763 | 11275 ft | 321 kts | 315° |
| 2026-04-25 13:32 | 49.69156 | 10.85234 | 11989 ft | 338 kts | 312° |
| 2026-04-25 13:33 | 49.70768 | 10.82568 | 12997 ft | 341 kts | 311° |
| 2026-04-25 13:33 | 49.72395 | 10.79865 | 13876 ft | 347 kts | 312° |
| 2026-04-25 13:33 | 49.74067 | 10.77127 | 14625 ft | 352 kts | 313° |
| 2026-04-25 13:33 | 49.75192 | 10.75307 | 15129 ft | 355 kts | 313° |
| 2026-04-25 13:34 | 49.77493 | 10.71643 | 16139 ft | 361 kts | 313° |
| 2026-04-25 13:34 | 49.79263 | 10.68851 | 16908 ft | 365 kts | 313° |
| 2026-04-25 13:34 | 49.81055 | 10.66032 | 17666 ft | 370 kts | 314° |
| 2026-04-25 13:34 | 49.82873 | 10.63173 | 18426 ft | 374 kts | 314° |
| 2026-04-25 13:35 | 49.84705 | 10.60291 | 19123 ft | 377 kts | 313° |
| 2026-04-25 13:35 | 49.86554 | 10.57375 | 19872 ft | 380 kts | 313° |
| 2026-04-25 13:35 | 49.88415 | 10.54435 | 20635 ft | 384 kts | 313° |
| 2026-04-25 13:35 | 49.90289 | 10.51465 | 21379 ft | 387 kts | 313° |
| 2026-04-25 13:36 | 49.92184 | 10.48457 | 22082 ft | 391 kts | 313° |
| 2026-04-25 13:36 | 49.94102 | 10.45410 | 22692 ft | 398 kts | 313° |
| 2026-04-25 13:36 | 49.96039 | 10.42326 | 23039 ft | 400 kts | 314° |
| 2026-04-25 13:36 | 49.98020 | 10.39172 | 23083 ft | 418 kts | 314° |
| 2026-04-25 13:37 | 50.00097 | 10.35862 | 23076 ft | 435 kts | 314° |
| 2026-04-25 13:37 | 50.02190 | 10.32522 | 23082 ft | 437 kts | 314° |
| 2026-04-25 13:37 | 50.04234 | 10.28960 | 23087 ft | 436 kts | 308° |
| 2026-04-25 13:37 | 50.05828 | 10.25022 | 23090 ft | 436 kts | 297° |
| 2026-04-25 13:38 | 50.06887 | 10.20601 | 23087 ft | 438 kts | 285° |
| 2026-04-25 13:38 | 50.07390 | 10.15915 | 23369 ft | 439 kts | 277° |
| 2026-04-25 13:38 | 50.07523 | 10.11202 | 24258 ft | 433 kts | 272° |
| 2026-04-25 13:38 | 50.07493 | 10.06547 | 25180 ft | 429 kts | 271° |
| 2026-04-25 13:39 | 50.07401 | 10.01870 | 25644 ft | 437 kts | 270° |
| 2026-04-25 13:39 | 50.07293 | 9.97079 | 25894 ft | 449 kts | 270° |
| 2026-04-25 13:39 | 50.07195 | 9.92167 | 26136 ft | 460 kts | 271° |
| 2026-04-25 13:39 | 50.07115 | 9.87129 | 26420 ft | 469 kts | 271° |
| 2026-04-25 13:40 | 50.07049 | 9.82023 | 26849 ft | 475 kts | 271° |
| 2026-04-25 13:40 | 50.06991 | 9.76867 | 27375 ft | 478 kts | 271° |
| 2026-04-25 13:40 | 50.06939 | 9.71673 | 27887 ft | 481 kts | 272° |
| 2026-04-25 13:40 | 50.06889 | 9.66454 | 28387 ft | 484 kts | 272° |
| 2026-04-25 13:41 | 50.06837 | 9.61197 | 28853 ft | 487 kts | 272° |
| 2026-04-25 13:41 | 50.06781 | 9.55925 | 29312 ft | 489 kts | 272° |
| 2026-04-25 13:41 | 50.06724 | 9.50620 | 29724 ft | 491 kts | 272° |
| 2026-04-25 13:41 | 50.06666 | 9.45295 | 30035 ft | 494 kts | 272° |
| 2026-04-25 13:42 | 50.06605 | 9.39943 | 30110 ft | 494 kts | 272° |
| 2026-04-25 13:42 | 50.06463 | 9.29315 | 30095 ft | 495 kts | 272° |
| 2026-04-25 13:43 | 50.06310 | 9.18614 | 30110 ft | 495 kts | 272° |
| 2026-04-25 13:43 | 50.06150 | 9.07905 | 30103 ft | 495 kts | 271° |
| 2026-04-25 13:44 | 50.05981 | 8.97193 | 30107 ft | 495 kts | 271° |
| 2026-04-25 13:44 | 50.05795 | 8.86470 | 30107 ft | 496 kts | 271° |
| 2026-04-25 13:45 | 50.05601 | 8.75739 | 30101 ft | 495 kts | 271° |
| 2026-04-25 13:45 | 50.05411 | 8.65010 | 30101 ft | 495 kts | 272° |
| 2026-04-25 13:46 | 50.06460 | 8.54570 | 30105 ft | 487 kts | 292° |
| 2026-04-25 13:46 | 50.09399 | 8.45228 | 29507 ft | 472 kts | 303° |
| 2026-04-25 13:46 | 50.11263 | 8.41119 | 29037 ft | 472 kts | 310° |
| 2026-04-25 13:47 | 50.13559 | 8.37334 | 29016 ft | 476 kts | 318° |
| 2026-04-25 13:47 | 50.19038 | 8.31854 | 28892 ft | 466 kts | 335° |
| 2026-04-25 13:47 | 50.22018 | 8.29957 | 28560 ft | 460 kts | 338° |
| 2026-04-25 13:48 | 50.25031 | 8.28271 | 28060 ft | 459 kts | 340° |
| 2026-04-25 13:48 | 50.28048 | 8.26685 | 27323 ft | 458 kts | 340° |
| 2026-04-25 13:48 | 50.31068 | 8.25125 | 26628 ft | 454 kts | 341° |
| 2026-04-25 13:48 | 50.34048 | 8.23574 | 25964 ft | 450 kts | 340° |
| 2026-04-25 13:49 | 50.37000 | 8.22014 | 25299 ft | 446 kts | 340° |
| 2026-04-25 13:49 | 50.39909 | 8.20395 | 24626 ft | 441 kts | 337° |
| 2026-04-25 13:49 | 50.42668 | 8.18268 | 23720 ft | 443 kts | 328° |
| 2026-04-25 13:49 | 50.45127 | 8.15479 | 22349 ft | 432 kts | 319° |
| 2026-04-25 13:50 | 50.47141 | 8.12029 | 21048 ft | 424 kts | 306° |
| 2026-04-25 13:50 | 50.48575 | 8.08145 | 20456 ft | 400 kts | 295° |
| 2026-04-25 13:50 | 50.49473 | 8.04199 | 20017 ft | 378 kts | 286° |
| 2026-04-25 13:50 | 50.49900 | 8.00261 | 19619 ft | 356 kts | 277° |
| 2026-04-25 13:51 | 50.50037 | 7.96489 | 19285 ft | 336 kts | 274° |
| 2026-04-25 13:51 | 50.50115 | 7.92917 | 18854 ft | 320 kts | 274° |
| 2026-04-25 13:51 | 50.50188 | 7.89468 | 18170 ft | 313 kts | 274° |
| 2026-04-25 13:51 | 50.50260 | 7.86074 | 17379 ft | 309 kts | 274° |
| 2026-04-25 13:52 | 50.50331 | 7.82716 | 16597 ft | 305 kts | 274° |
| 2026-04-25 13:52 | 50.50400 | 7.79410 | 15870 ft | 301 kts | 274° |
| 2026-04-25 13:52 | 50.50307 | 7.76178 | 15445 ft | 289 kts | 266° |
| 2026-04-25 13:52 | 50.50137 | 7.73100 | 14976 ft | 278 kts | 270° |
| 2026-04-25 13:53 | 50.50235 | 7.70112 | 14422 ft | 271 kts | 281° |
| 2026-04-25 13:53 | 50.50766 | 7.67307 | 13785 ft | 267 kts | 296° |
| 2026-04-25 13:53 | 50.51765 | 7.64881 | 13107 ft | 264 kts | 311° |
| 2026-04-25 13:53 | 50.53075 | 7.62896 | 12456 ft | 261 kts | 318° |
| 2026-04-25 13:54 | 50.54435 | 7.61030 | 11803 ft | 258 kts | 318° |
| 2026-04-25 13:54 | 50.55779 | 7.59173 | 11195 ft | 256 kts | 317° |
| 2026-04-25 13:54 | 50.57104 | 7.57325 | 10619 ft | 253 kts | 317° |
| 2026-04-25 13:54 | 50.58409 | 7.55485 | 10014 ft | 251 kts | 317° |
| 2026-04-25 13:55 | 50.59702 | 7.53650 | 9352 ft | 250 kts | 317° |
| 2026-04-25 13:55 | 50.61037 | 7.51921 | 8718 ft | 248 kts | 326° |
| 2026-04-25 13:55 | 50.62607 | 7.50947 | 8126 ft | 247 kts | 349° |
| 2026-04-25 13:55 | 50.64319 | 7.51247 | 7764 ft | 250 kts | 19° |
| 2026-04-25 13:56 | 50.65737 | 7.52867 | 7499 ft | 255 kts | 46° |
| 2026-04-25 13:56 | 50.66498 | 7.55354 | 6876 ft | 263 kts | 78° |
| 2026-04-25 13:56 | 50.66327 | 7.58220 | 6233 ft | 268 kts | 109° |
| 2026-04-25 13:56 | 50.65303 | 7.60633 | 5631 ft | 267 kts | 140° |
| 2026-04-25 13:57 | 50.63665 | 7.61879 | 5078 ft | 262 kts | 171° |
| 2026-04-25 13:57 | 50.63055 | 7.61976 | 4864 ft | 260 kts | 182° |
| 2026-04-25 13:57 | 50.60466 | 7.60191 | 4075 ft | 243 kts | 231° |
| 2026-04-25 13:57 | 50.59623 | 7.57941 | 3979 ft | 239 kts | 257° |
| 2026-04-25 13:58 | 50.59507 | 7.55392 | 3952 ft | 233 kts | 282° |
| 2026-04-25 13:58 | 50.60138 | 7.53096 | 3959 ft | 228 kts | 309° |
| 2026-04-25 13:58 | 50.61346 | 7.51506 | 3959 ft | 227 kts | 328° |
| 2026-04-25 13:58 | 50.62547 | 7.49900 | 3960 ft | 227 kts | 315° |
| 2026-04-25 13:59 | 50.63681 | 7.48152 | 3964 ft | 229 kts | 316° |
| 2026-04-25 13:59 | 50.64833 | 7.46429 | 3969 ft | 228 kts | 317° |
| 2026-04-25 13:59 | 50.65919 | 7.44832 | 3955 ft | 228 kts | 318° |
| 2026-04-25 13:59 | 50.67040 | 7.43213 | 3863 ft | 225 kts | 319° |
| 2026-04-25 14:00 | 50.67413 | 7.42674 | 3809 ft | 222 kts | 319° |
| 2026-04-25 14:00 | 50.69221 | 7.40050 | 3624 ft | 200 kts | 319° |
| 2026-04-25 14:00 | 50.70220 | 7.38622 | 3592 ft | 187 kts | 319° |
| 2026-04-25 14:00 | 50.71150 | 7.37296 | 3497 ft | 173 kts | 319° |
| 2026-04-25 14:01 | 50.72002 | 7.36064 | 3387 ft | 162 kts | 319° |
| 2026-04-25 14:01 | 50.72827 | 7.34874 | 3305 ft | 156 kts | 319° |
| 2026-04-25 14:01 | 50.73613 | 7.33749 | 3223 ft | 158 kts | 319° |
| 2026-04-25 14:01 | 50.74445 | 7.32552 | 3125 ft | 164 kts | 318° |
| 2026-04-25 14:02 | 50.75289 | 7.31338 | 2991 ft | 164 kts | 318° |
| 2026-04-25 14:02 | 50.76143 | 7.30117 | 2841 ft | 164 kts | 319° |
| 2026-04-25 14:02 | 50.76986 | 7.28903 | 2620 ft | 164 kts | 317° |
| 2026-04-25 14:02 | 50.77268 | 7.28492 | 2565 ft | 164 kts | 317° |
| 2026-04-25 14:03 | 50.78645 | 7.26494 | 2176 ft | 160 kts | 317° |
| 2026-04-25 14:03 | 50.79480 | 7.25293 | 1990 ft | 166 kts | 317° |
| 2026-04-25 14:03 | 50.80353 | 7.24033 | 1731 ft | 171 kts | 317° |
| 2026-04-25 14:03 | 50.81239 | 7.22750 | 1488 ft | 174 kts | 317° |
| 2026-04-25 14:04 | 50.82131 | 7.21462 | 1267 ft | 174 kts | 317° |
| 2026-04-25 14:04 | 50.83007 | 7.20193 | 1024 ft | 167 kts | 316° |
| 2026-04-25 14:04 | 50.83849 | 7.18978 | 799 ft | 160 kts | 317° |
| 2026-04-25 14:04 | 50.84643 | 7.17831 | 588 ft | 147 kts | 317° |
| 2026-04-25 14:05 | 50.85367 | 7.16779 | 393 ft | 137 kts | 317° |
| 2026-04-25 14:05 | 50.86037 | 7.15808 | 303 ft | 117 kts | 317° |
| 2026-04-25 14:05 | 50.86506 | 7.15129 | 272 ft | 66 kts | 317° |
| 2026-04-25 14:05 | 50.86715 | 7.14826 | 264 ft | 25 kts | 317° |
| 2026-04-25 14:06 | 50.86768 | 7.14750 | 263 ft | 0 kts | 317° |
| 2026-04-25 14:06 | 50.86790 | 7.14715 | 263 ft | 13 kts | 313° |
| 2026-04-25 14:06 | 50.86868 | 7.14523 | 262 ft | 28 kts | 288° |
| 2026-04-25 14:06 | 50.86892 | 7.14273 | 263 ft | 0 kts | 277° |
| 2026-04-25 14:08 | 50.86896 | 7.14210 | 263 ft | 15 kts | 277° |
| 2026-04-25 14:08 | 50.86885 | 7.14008 | 251 ft | 17 kts | 228° |
| 2026-04-25 14:08 | 50.86832 | 7.13989 | 251 ft | 2 kts | 138° |
| 2026-04-25 14:09 | 50.86813 | 7.14047 | 254 ft | 14 kts | 119° |
| 2026-04-25 14:09 | 50.86792 | 7.14104 | 256 ft | 0 kts | 121° |
| 2026-04-25 14:10 | 50.86735 | 7.14161 | 259 ft | 20 kts | 148° |
| 2026-04-25 14:10 | 50.86710 | 7.14186 | 260 ft | 0 kts | 147° |
| 2026-04-25 14:13 | 50.86658 | 7.14249 | 263 ft | 18 kts | 141° |
| 2026-04-25 14:13 | 50.86586 | 7.14246 | 264 ft | 16 kts | 225° |
| 2026-04-25 14:13 | 50.86471 | 7.13877 | 258 ft | 51 kts | 245° |
| 2026-04-25 14:14 | 50.86318 | 7.13374 | 255 ft | 50 kts | 244° |
| 2026-04-25 14:14 | 50.86166 | 7.12874 | 249 ft | 50 kts | 244° |
| 2026-04-25 14:14 | 50.86095 | 7.12474 | 250 ft | 29 kts | 269° |
| 2026-04-25 14:14 | 50.86199 | 7.12342 | 244 ft | 21 kts | 347° |
| 2026-04-25 14:15 | 50.86309 | 7.12218 | 238 ft | 20 kts | 307° |
| 2026-04-25 14:15 | 50.86366 | 7.12104 | 238 ft | 19 kts | 316° |
| 2026-04-25 14:15 | 50.86441 | 7.12095 | 238 ft | 6 kts | 32° |
| 2026-04-25 14:15 | 50.86490 | 7.12145 | 238 ft | 10 kts | 32° |
| 2026-04-25 14:16 | 50.86567 | 7.12188 | 238 ft | 13 kts | 358° |
| 2026-04-25 14:16 | 50.86621 | 7.12151 | 238 ft | 5 kts | 300° |
| 2026-04-25 14:16 | 50.86620 | 7.12067 | 238 ft | 11 kts | 259° |
| 2026-04-25 14:16 | 50.86612 | 7.12022 | 238 ft | 6 kts | 255° |
| 2026-04-25 14:17 | 50.86611 | 7.12014 | 238 ft | 0 kts | 255° |